sensor_id;sensor_type;location;lat;lon;timestamp;temperature;humidity
78461;SHT31;67755;51.986;5.696;2023-04-23T00:01:22;13.9;60.9
78461;SHT31;67755;51.986;5.696;2023-04-23T00:03:57;13.9;60.9
78461;SHT31;67755;51.986;5.696;2023-04-23T00:06:28;13.9;60.6
78461;SHT31;67755;51.986;5.696;2023-04-23T00:09:00;13.9;60.4
78461;SHT31;67755;51.986;5.696;2023-04-23T00:11:30;13.9;60.3
78461;SHT31;67755;51.986;5.696;2023-04-23T00:14:01;13.9;60.5
78461;SHT31;67755;51.986;5.696;2023-04-23T00:16:31;13.9;60.5
78461;SHT31;67755;51.986;5.696;2023-04-23T00:19:01;13.9;60.5
78461;SHT31;67755;51.986;5.696;2023-04-23T00:21:31;13.8;60.7
78461;SHT31;67755;51.986;5.696;2023-04-23T00:24:00;13.8;60.4
78461;SHT31;67755;51.986;5.696;2023-04-23T00:26:30;13.8;60.4
78461;SHT31;67755;51.986;5.696;2023-04-23T00:28:59;13.8;60.5
78461;SHT31;67755;51.986;5.696;2023-04-23T00:31:29;13.8;60.4
78461;SHT31;67755;51.986;5.696;2023-04-23T00:33:58;13.8;60.5
78461;SHT31;67755;51.986;5.696;2023-04-23T00:36:28;13.7;60.2
78461;SHT31;67755;51.986;5.696;2023-04-23T00:38:58;13.7;60.2
78461;SHT31;67755;51.986;5.696;2023-04-23T00:41:27;13.7;60.3
78461;SHT31;67755;51.986;5.696;2023-04-23T00:43:57;13.7;60.0
78461;SHT31;67755;51.986;5.696;2023-04-23T00:46:26;13.7;60.2
78461;SHT31;67755;51.986;5.696;2023-04-23T00:48:59;13.6;60.0
78461;SHT31;67755;51.986;5.696;2023-04-23T00:51:29;13.6;60.0
78461;SHT31;67755;51.986;5.696;2023-04-23T00:53:59;13.6;59.8
78461;SHT31;67755;51.986;5.696;2023-04-23T00:56:29;13.6;60.0
78461;SHT31;67755;51.986;5.696;2023-04-23T00:59:01;13.6;60.0
78461;SHT31;67755;51.986;5.696;2023-04-23T01:01:31;13.6;59.8
78461;SHT31;67755;51.986;5.696;2023-04-23T01:04:02;13.5;59.7
78461;SHT31;67755;51.986;5.696;2023-04-23T01:06:32;13.5;60.3
78461;SHT31;67755;51.986;5.696;2023-04-23T01:09:02;13.5;60.2
78461;SHT31;67755;51.986;5.696;2023-04-23T01:11:33;13.5;60.4
78461;SHT31;67755;51.986;5.696;2023-04-23T01:14:02;13.5;60.8
78461;SHT31;67755;51.986;5.696;2023-04-23T01:16:32;13.5;61.3
78461;SHT31;67755;51.986;5.696;2023-04-23T01:19:03;13.4;61.3
78461;SHT31;67755;51.986;5.696;2023-04-23T01:21:36;13.4;61.6
78461;SHT31;67755;51.986;5.696;2023-04-23T01:24:09;13.4;62.0
78461;SHT31;67755;51.986;5.696;2023-04-23T01:26:38;13.4;62.3
78461;SHT31;67755;51.986;5.696;2023-04-23T01:29:11;13.4;62.4
78461;SHT31;67755;51.986;5.696;2023-04-23T01:31:42;13.4;62.4
78461;SHT31;67755;51.986;5.696;2023-04-23T01:34:13;13.4;62.7
78461;SHT31;67755;51.986;5.696;2023-04-23T01:36:44;13.4;62.6
78461;SHT31;67755;51.986;5.696;2023-04-23T01:39:14;13.4;62.4
78461;SHT31;67755;51.986;5.696;2023-04-23T01:41:45;13.4;62.3
78461;SHT31;67755;51.986;5.696;2023-04-23T01:44:15;13.4;62.3
78461;SHT31;67755;51.986;5.696;2023-04-23T01:46:45;13.4;62.5
78461;SHT31;67755;51.986;5.696;2023-04-23T01:49:15;13.4;62.4
78461;SHT31;67755;51.986;5.696;2023-04-23T01:51:45;13.4;62.4
78461;SHT31;67755;51.986;5.696;2023-04-23T01:54:14;13.4;62.4
78461;SHT31;67755;51.986;5.696;2023-04-23T01:56:46;13.4;62.3
78461;SHT31;67755;51.986;5.696;2023-04-23T01:59:16;13.3;62.2
78461;SHT31;67755;51.986;5.696;2023-04-23T02:01:49;13.3;62.3
78461;SHT31;67755;51.986;5.696;2023-04-23T02:04:19;13.3;62.3
78461;SHT31;67755;51.986;5.696;2023-04-23T02:06:50;13.3;62.0
78461;SHT31;67755;51.986;5.696;2023-04-23T02:09:20;13.3;62.5
78461;SHT31;67755;51.986;5.696;2023-04-23T02:11:49;13.3;62.6
78461;SHT31;67755;51.986;5.696;2023-04-23T02:14:21;13.3;63.0
78461;SHT31;67755;51.986;5.696;2023-04-23T02:16:50;13.3;63.0
78461;SHT31;67755;51.986;5.696;2023-04-23T02:19:20;13.3;63.0
78461;SHT31;67755;51.986;5.696;2023-04-23T02:21:49;13.3;63.3
78461;SHT31;67755;51.986;5.696;2023-04-23T02:24:19;13.3;63.3
78461;SHT31;67755;51.986;5.696;2023-04-23T02:26:49;13.3;63.7
78461;SHT31;67755;51.986;5.696;2023-04-23T02:29:18;13.3;63.7
78461;SHT31;67755;51.986;5.696;2023-04-23T02:31:48;13.3;63.7
78461;SHT31;67755;51.986;5.696;2023-04-23T02:34:17;13.3;63.8
78461;SHT31;67755;51.986;5.696;2023-04-23T02:36:47;13.3;63.8
78461;SHT31;67755;51.986;5.696;2023-04-23T02:39:17;13.3;63.8
78461;SHT31;67755;51.986;5.696;2023-04-23T02:41:47;13.3;64.1
78461;SHT31;67755;51.986;5.696;2023-04-23T02:44:17;13.3;64.3
78461;SHT31;67755;51.986;5.696;2023-04-23T02:46:47;13.3;64.4
78461;SHT31;67755;51.986;5.696;2023-04-23T02:49:18;13.3;64.3
78461;SHT31;67755;51.986;5.696;2023-04-23T02:51:50;13.3;64.4
78461;SHT31;67755;51.986;5.696;2023-04-23T02:54:19;13.3;64.2
78461;SHT31;67755;51.986;5.696;2023-04-23T02:56:50;13.3;64.4
78461;SHT31;67755;51.986;5.696;2023-04-23T02:59:19;13.3;64.4
78461;SHT31;67755;51.986;5.696;2023-04-23T03:01:49;13.3;64.4
78461;SHT31;67755;51.986;5.696;2023-04-23T03:04:19;13.3;64.3
78461;SHT31;67755;51.986;5.696;2023-04-23T03:06:49;13.3;64.3
78461;SHT31;67755;51.986;5.696;2023-04-23T03:09:18;13.3;64.2
78461;SHT31;67755;51.986;5.696;2023-04-23T03:11:48;13.3;64.3
78461;SHT31;67755;51.986;5.696;2023-04-23T03:14:18;13.3;63.9
78461;SHT31;67755;51.986;5.696;2023-04-23T03:16:47;13.3;64.0
78461;SHT31;67755;51.986;5.696;2023-04-23T03:19:17;13.3;64.1
78461;SHT31;67755;51.986;5.696;2023-04-23T03:21:46;13.3;63.8
78461;SHT31;67755;51.986;5.696;2023-04-23T03:24:16;13.3;64.0
78461;SHT31;67755;51.986;5.696;2023-04-23T03:26:46;13.3;63.5
78461;SHT31;67755;51.986;5.696;2023-04-23T03:29:16;13.3;63.6
78461;SHT31;67755;51.986;5.696;2023-04-23T03:31:46;13.3;63.7
78461;SHT31;67755;51.986;5.696;2023-04-23T03:34:17;13.3;63.8
78461;SHT31;67755;51.986;5.696;2023-04-23T03:36:47;13.3;64.2
78461;SHT31;67755;51.986;5.696;2023-04-23T03:39:17;13.3;64.2
78461;SHT31;67755;51.986;5.696;2023-04-23T03:41:47;13.3;64.3
78461;SHT31;67755;51.986;5.696;2023-04-23T03:44:17;13.3;64.6
78461;SHT31;67755;51.986;5.696;2023-04-23T03:46:46;13.2;64.7
78461;SHT31;67755;51.986;5.696;2023-04-23T03:49:16;13.2;64.6
78461;SHT31;67755;51.986;5.696;2023-04-23T03:51:45;13.2;64.7
78461;SHT31;67755;51.986;5.696;2023-04-23T03:54:15;13.2;64.6
78461;SHT31;67755;51.986;5.696;2023-04-23T03:56:45;13.3;64.7
78461;SHT31;67755;51.986;5.696;2023-04-23T03:59:15;13.3;64.7
78461;SHT31;67755;51.986;5.696;2023-04-23T04:01:46;13.3;64.3
78461;SHT31;67755;51.986;5.696;2023-04-23T04:04:18;13.3;64.1
78461;SHT31;67755;51.986;5.696;2023-04-23T04:06:49;13.3;63.8
78461;SHT31;67755;51.986;5.696;2023-04-23T04:09:19;13.3;63.7
78461;SHT31;67755;51.986;5.696;2023-04-23T04:11:49;13.3;63.6
78461;SHT31;67755;51.986;5.696;2023-04-23T04:14:20;13.3;63.6
78461;SHT31;67755;51.986;5.696;2023-04-23T04:16:50;13.3;63.5
78461;SHT31;67755;51.986;5.696;2023-04-23T04:19:19;13.3;63.2
78461;SHT31;67755;51.986;5.696;2023-04-23T04:21:49;13.3;63.2
78461;SHT31;67755;51.986;5.696;2023-04-23T04:24:19;13.3;63.2
78461;SHT31;67755;51.986;5.696;2023-04-23T04:26:53;13.3;63.3
78461;SHT31;67755;51.986;5.696;2023-04-23T04:29:23;13.3;62.9
78461;SHT31;67755;51.986;5.696;2023-04-23T04:31:53;13.3;63.0
78461;SHT31;67755;51.986;5.696;2023-04-23T04:34:23;13.3;63.2
78461;SHT31;67755;51.986;5.696;2023-04-23T04:36:53;13.3;63.1
78461;SHT31;67755;51.986;5.696;2023-04-23T04:39:23;13.3;63.1
78461;SHT31;67755;51.986;5.696;2023-04-23T04:41:54;13.3;63.3
78461;SHT31;67755;51.986;5.696;2023-04-23T04:44:28;13.2;63.6
78461;SHT31;67755;51.986;5.696;2023-04-23T04:46:58;13.2;63.6
78461;SHT31;67755;51.986;5.696;2023-04-23T04:49:28;13.2;63.9
78461;SHT31;67755;51.986;5.696;2023-04-23T04:51:59;13.2;64.2
78461;SHT31;67755;51.986;5.696;2023-04-23T04:54:29;13.2;64.5
78461;SHT31;67755;51.986;5.696;2023-04-23T04:57:00;13.2;64.7
78461;SHT31;67755;51.986;5.696;2023-04-23T04:59:30;13.2;64.8
78461;SHT31;67755;51.986;5.696;2023-04-23T05:02:00;13.2;64.9
78461;SHT31;67755;51.986;5.696;2023-04-23T05:04:29;13.2;65.1
78461;SHT31;67755;51.986;5.696;2023-04-23T05:06:59;13.3;65.2
78461;SHT31;67755;51.986;5.696;2023-04-23T05:09:30;13.3;65.4
78461;SHT31;67755;51.986;5.696;2023-04-23T05:12:00;13.3;65.4
78461;SHT31;67755;51.986;5.696;2023-04-23T05:14:30;13.3;65.4
78461;SHT31;67755;51.986;5.696;2023-04-23T05:17:02;13.3;65.4
78461;SHT31;67755;51.986;5.696;2023-04-23T05:19:31;13.3;65.3
78461;SHT31;67755;51.986;5.696;2023-04-23T05:22:01;13.4;65.1
78461;SHT31;67755;51.986;5.696;2023-04-23T05:24:31;13.4;64.7
78461;SHT31;67755;51.986;5.696;2023-04-23T05:27:02;13.4;64.5
78461;SHT31;67755;51.986;5.696;2023-04-23T05:29:32;13.4;64.1
78461;SHT31;67755;51.986;5.696;2023-04-23T05:32:02;13.4;64.0
78461;SHT31;67755;51.986;5.696;2023-04-23T05:34:31;13.4;64.1
78461;SHT31;67755;51.986;5.696;2023-04-23T05:37:01;13.4;64.2
78461;SHT31;67755;51.986;5.696;2023-04-23T05:39:32;13.4;64.4
78461;SHT31;67755;51.986;5.696;2023-04-23T05:42:02;13.4;64.6
78461;SHT31;67755;51.986;5.696;2023-04-23T05:44:33;13.4;64.7
78461;SHT31;67755;51.986;5.696;2023-04-23T05:47:03;13.4;64.6
78461;SHT31;67755;51.986;5.696;2023-04-23T05:49:34;13.4;64.4
78461;SHT31;67755;51.986;5.696;2023-04-23T05:52:04;13.5;64.2
78461;SHT31;67755;51.986;5.696;2023-04-23T05:54:34;13.5;64.1
78461;SHT31;67755;51.986;5.696;2023-04-23T05:57:04;13.5;64.2
78461;SHT31;67755;51.986;5.696;2023-04-23T05:59:33;13.5;64.4
78461;SHT31;67755;51.986;5.696;2023-04-23T06:02:05;13.5;64.6
78461;SHT31;67755;51.986;5.696;2023-04-23T06:04:35;13.5;64.7
78461;SHT31;67755;51.986;5.696;2023-04-23T06:07:05;13.5;64.8
78461;SHT31;67755;51.986;5.696;2023-04-23T06:09:35;13.5;65.1
78461;SHT31;67755;51.986;5.696;2023-04-23T06:12:05;13.5;65.4
78461;SHT31;67755;51.986;5.696;2023-04-23T06:14:34;13.5;65.6
78461;SHT31;67755;51.986;5.696;2023-04-23T06:17:03;13.5;65.7
78461;SHT31;67755;51.986;5.696;2023-04-23T06:19:33;13.5;66.0
78461;SHT31;67755;51.986;5.696;2023-04-23T06:22:03;13.6;66.6
78461;SHT31;67755;51.986;5.696;2023-04-23T06:24:34;13.6;67.0
78461;SHT31;67755;51.986;5.696;2023-04-23T06:27:03;13.6;67.4
78461;SHT31;67755;51.986;5.696;2023-04-23T06:29:33;13.6;67.6
78461;SHT31;67755;51.986;5.696;2023-04-23T06:32:03;13.6;67.6
78461;SHT31;67755;51.986;5.696;2023-04-23T06:34:33;13.7;67.8
78461;SHT31;67755;51.986;5.696;2023-04-23T06:37:02;13.7;68.2
78461;SHT31;67755;51.986;5.696;2023-04-23T06:39:32;13.7;68.3
78461;SHT31;67755;51.986;5.696;2023-04-23T06:42:02;13.7;68.4
78461;SHT31;67755;51.986;5.696;2023-04-23T06:44:31;13.8;68.7
78461;SHT31;67755;51.986;5.696;2023-04-23T06:47:01;13.8;68.8
78461;SHT31;67755;51.986;5.696;2023-04-23T06:49:31;13.8;68.9
78461;SHT31;67755;51.986;5.696;2023-04-23T06:52:00;13.9;69.1
78461;SHT31;67755;51.986;5.696;2023-04-23T06:54:30;13.9;69.4
78461;SHT31;67755;51.986;5.696;2023-04-23T06:57:00;13.9;69.4
78461;SHT31;67755;51.986;5.696;2023-04-23T06:59:29;14.0;69.7
78461;SHT31;67755;51.986;5.696;2023-04-23T07:01:59;14.0;69.5
78461;SHT31;67755;51.986;5.696;2023-04-23T07:04:34;14.1;69.2
78461;SHT31;67755;51.986;5.696;2023-04-23T07:07:04;14.1;69.9
78461;SHT31;67755;51.986;5.696;2023-04-23T07:09:36;14.1;69.5
78461;SHT31;67755;51.986;5.696;2023-04-23T07:12:05;14.2;69.3
78461;SHT31;67755;51.986;5.696;2023-04-23T07:14:35;14.2;69.2
78461;SHT31;67755;51.986;5.696;2023-04-23T07:17:04;14.2;69.2
78461;SHT31;67755;51.986;5.696;2023-04-23T07:19:34;14.3;69.0
78461;SHT31;67755;51.986;5.696;2023-04-23T07:22:04;14.3;69.7
78461;SHT31;67755;51.986;5.696;2023-04-23T07:24:33;14.4;69.9
78461;SHT31;67755;51.986;5.696;2023-04-23T07:27:03;14.4;70.9
78461;SHT31;67755;51.986;5.696;2023-04-23T07:29:33;14.5;71.6
78461;SHT31;67755;51.986;5.696;2023-04-23T07:32:02;14.6;71.6
78461;SHT31;67755;51.986;5.696;2023-04-23T07:34:32;14.6;70.9
78461;SHT31;67755;51.986;5.696;2023-04-23T07:37:03;14.7;70.5
78461;SHT31;67755;51.986;5.696;2023-04-23T07:39:33;14.8;70.9
78461;SHT31;67755;51.986;5.696;2023-04-23T07:42:03;14.9;69.7
78461;SHT31;67755;51.986;5.696;2023-04-23T07:44:32;15.0;70.2
78461;SHT31;67755;51.986;5.696;2023-04-23T07:47:02;15.1;69.6
78461;SHT31;67755;51.986;5.696;2023-04-23T07:49:32;15.2;69.9
78461;SHT31;67755;51.986;5.696;2023-04-23T07:52:02;15.3;70.2
78461;SHT31;67755;51.986;5.696;2023-04-23T07:54:31;15.4;67.7
78461;SHT31;67755;51.986;5.696;2023-04-23T07:57:01;15.5;68.5
78461;SHT31;67755;51.986;5.696;2023-04-23T07:59:31;15.5;68.3
78461;SHT31;67755;51.986;5.696;2023-04-23T08:02:01;15.6;67.2
78461;SHT31;67755;51.986;5.696;2023-04-23T08:04:30;15.7;66.6
78461;SHT31;67755;51.986;5.696;2023-04-23T08:07:02;15.8;66.5
78461;SHT31;67755;51.986;5.696;2023-04-23T08:09:31;15.9;66.6
78461;SHT31;67755;51.986;5.696;2023-04-23T08:12:01;16.0;68.1
78461;SHT31;67755;51.986;5.696;2023-04-23T08:14:31;16.1;68.2
78461;SHT31;67755;51.986;5.696;2023-04-23T08:17:00;16.2;65.9
78461;SHT31;67755;51.986;5.696;2023-04-23T08:19:32;16.3;65.3
78461;SHT31;67755;51.986;5.696;2023-04-23T08:22:02;16.4;65.4
78461;SHT31;67755;51.986;5.696;2023-04-23T08:24:32;16.5;65.8
78461;SHT31;67755;51.986;5.696;2023-04-23T08:27:01;16.6;65.2
78461;SHT31;67755;51.986;5.696;2023-04-23T08:29:31;16.7;66.2
78461;SHT31;67755;51.986;5.696;2023-04-23T08:32:01;16.8;63.8
78461;SHT31;67755;51.986;5.696;2023-04-23T08:34:31;16.9;62.8
78461;SHT31;67755;51.986;5.696;2023-04-23T08:37:01;17.0;64.8
78461;SHT31;67755;51.986;5.696;2023-04-23T08:39:32;17.1;62.6
78461;SHT31;67755;51.986;5.696;2023-04-23T08:42:17;17.2;63.1
78461;SHT31;67755;51.986;5.696;2023-04-23T08:44:46;17.4;62.7
78461;SHT31;67755;51.986;5.696;2023-04-23T08:47:17;17.5;61.5
78461;SHT31;67755;51.986;5.696;2023-04-23T08:49:47;17.6;60.9
78461;SHT31;67755;51.986;5.696;2023-04-23T08:52:22;17.7;61.4
78461;SHT31;67755;51.986;5.696;2023-04-23T08:54:53;17.8;62.6
78461;SHT31;67755;51.986;5.696;2023-04-23T08:57:30;17.9;60.3
78461;SHT31;67755;51.986;5.696;2023-04-23T09:00:02;18.0;59.2
78461;SHT31;67755;51.986;5.696;2023-04-23T09:02:35;18.0;59.8
78461;SHT31;67755;51.986;5.696;2023-04-23T09:05:05;18.1;60.9
78461;SHT31;67755;51.986;5.696;2023-04-23T09:07:36;18.2;58.9
78461;SHT31;67755;51.986;5.696;2023-04-23T09:10:07;18.3;60.9
78461;SHT31;67755;51.986;5.696;2023-04-23T09:12:40;18.4;59.0
78461;SHT31;67755;51.986;5.696;2023-04-23T09:15:12;18.5;60.4
78461;SHT31;67755;51.986;5.696;2023-04-23T09:17:44;18.6;61.1
78461;SHT31;67755;51.986;5.696;2023-04-23T09:20:16;18.7;60.5
78461;SHT31;67755;51.986;5.696;2023-04-23T09:22:47;18.8;57.5
78461;SHT31;67755;51.986;5.696;2023-04-23T09:25:20;18.9;57.4
78461;SHT31;67755;51.986;5.696;2023-04-23T09:27:51;19.0;56.1
78461;SHT31;67755;51.986;5.696;2023-04-23T09:30:21;19.1;54.5
78461;SHT31;67755;51.986;5.696;2023-04-23T09:32:53;19.2;53.6
78461;SHT31;67755;51.986;5.696;2023-04-23T09:35:28;19.2;52.5
78461;SHT31;67755;51.986;5.696;2023-04-23T09:38:00;19.2;54.6
78461;SHT31;67755;51.986;5.696;2023-04-23T09:40:33;19.3;53.5
78461;SHT31;67755;51.986;5.696;2023-04-23T09:43:04;19.3;53.6
78461;SHT31;67755;51.986;5.696;2023-04-23T09:45:35;19.3;52.8
78461;SHT31;67755;51.986;5.696;2023-04-23T09:48:05;19.4;53.1
78461;SHT31;67755;51.986;5.696;2023-04-23T09:50:36;19.4;53.6
78461;SHT31;67755;51.986;5.696;2023-04-23T09:53:08;19.4;53.3
78461;SHT31;67755;51.986;5.696;2023-04-23T09:55:38;19.5;52.7
78461;SHT31;67755;51.986;5.696;2023-04-23T09:58:13;19.5;52.3
78461;SHT31;67755;51.986;5.696;2023-04-23T10:00:43;19.6;52.4
78461;SHT31;67755;51.986;5.696;2023-04-23T10:03:14;19.6;54.2
78461;SHT31;67755;51.986;5.696;2023-04-23T10:05:43;19.7;53.8
78461;SHT31;67755;51.986;5.696;2023-04-23T10:08:14;19.8;52.2
78461;SHT31;67755;51.986;5.696;2023-04-23T10:10:46;19.9;50.8
78461;SHT31;67755;51.986;5.696;2023-04-23T10:13:17;19.9;50.1
78461;SHT31;67755;51.986;5.696;2023-04-23T10:15:47;20.0;49.3
78461;SHT31;67755;51.986;5.696;2023-04-23T10:18:19;20.1;47.7
78461;SHT31;67755;51.986;5.696;2023-04-23T10:20:51;20.2;47.3
78461;SHT31;67755;51.986;5.696;2023-04-23T10:23:23;20.3;47.0
78461;SHT31;67755;51.986;5.696;2023-04-23T10:25:54;20.4;48.4
78461;SHT31;67755;51.986;5.696;2023-04-23T10:28:25;20.4;47.0
78461;SHT31;67755;51.986;5.696;2023-04-23T10:30:58;20.5;46.5
78461;SHT31;67755;51.986;5.696;2023-04-23T10:33:30;20.5;45.8
78461;SHT31;67755;51.986;5.696;2023-04-23T10:36:03;20.6;46.7
78461;SHT31;67755;51.986;5.696;2023-04-23T10:38:34;20.6;46.5
78461;SHT31;67755;51.986;5.696;2023-04-23T10:41:04;20.6;46.7
78461;SHT31;67755;51.986;5.696;2023-04-23T10:43:35;20.6;47.1
78461;SHT31;67755;51.986;5.696;2023-04-23T10:46:28;20.6;45.0
78461;SHT31;67755;51.986;5.696;2023-04-23T10:49:06;20.6;45.3
78461;SHT31;67755;51.986;5.696;2023-04-23T10:51:36;20.6;47.9
78461;SHT31;67755;51.986;5.696;2023-04-23T10:54:06;20.6;47.9
78461;SHT31;67755;51.986;5.696;2023-04-23T10:56:39;20.6;46.3
78461;SHT31;67755;51.986;5.696;2023-04-23T10:59:19;20.6;44.7
78461;SHT31;67755;51.986;5.696;2023-04-23T11:01:50;20.6;46.4
78461;SHT31;67755;51.986;5.696;2023-04-23T11:04:20;20.6;44.2
78461;SHT31;67755;51.986;5.696;2023-04-23T11:06:52;20.6;44.8
78461;SHT31;67755;51.986;5.696;2023-04-23T11:09:30;20.6;45.0
78461;SHT31;67755;51.986;5.696;2023-04-23T11:12:04;20.7;43.6
78461;SHT31;67755;51.986;5.696;2023-04-23T11:14:36;20.7;43.5
78461;SHT31;67755;51.986;5.696;2023-04-23T11:17:06;20.7;45.1
78461;SHT31;67755;51.986;5.696;2023-04-23T11:19:37;20.7;44.4
78461;SHT31;67755;51.986;5.696;2023-04-23T11:22:12;20.7;43.8
78461;SHT31;67755;51.986;5.696;2023-04-23T11:24:44;20.8;44.1
78461;SHT31;67755;51.986;5.696;2023-04-23T11:27:15;20.8;44.4
78461;SHT31;67755;51.986;5.696;2023-04-23T11:29:46;20.8;45.3
78461;SHT31;67755;51.986;5.696;2023-04-23T11:32:16;20.8;45.1
78461;SHT31;67755;51.986;5.696;2023-04-23T11:34:47;20.8;43.3
78461;SHT31;67755;51.986;5.696;2023-04-23T11:37:18;20.8;43.3
78461;SHT31;67755;51.986;5.696;2023-04-23T11:39:49;20.8;42.3
78461;SHT31;67755;51.986;5.696;2023-04-23T11:42:19;20.8;43.7
78461;SHT31;67755;51.986;5.696;2023-04-23T11:44:49;20.8;44.4
78461;SHT31;67755;51.986;5.696;2023-04-23T11:47:19;20.8;43.0
78461;SHT31;67755;51.986;5.696;2023-04-23T11:49:48;20.8;44.3
78461;SHT31;67755;51.986;5.696;2023-04-23T11:52:18;20.8;43.8
78461;SHT31;67755;51.986;5.696;2023-04-23T11:54:50;20.8;44.5
78461;SHT31;67755;51.986;5.696;2023-04-23T11:57:20;20.8;43.7
78461;SHT31;67755;51.986;5.696;2023-04-23T11:59:52;20.8;43.5
78461;SHT31;67755;51.986;5.696;2023-04-23T12:02:24;20.8;43.2
78461;SHT31;67755;51.986;5.696;2023-04-23T12:04:56;20.8;43.8
78461;SHT31;67755;51.986;5.696;2023-04-23T12:07:33;20.8;43.7
78461;SHT31;67755;51.986;5.696;2023-04-23T12:10:03;20.8;45.1
78461;SHT31;67755;51.986;5.696;2023-04-23T12:12:34;20.8;46.3
78461;SHT31;67755;51.986;5.696;2023-04-23T12:15:05;20.8;45.6
78461;SHT31;67755;51.986;5.696;2023-04-23T12:17:35;20.8;45.0
78461;SHT31;67755;51.986;5.696;2023-04-23T12:20:05;20.8;43.5
78461;SHT31;67755;51.986;5.696;2023-04-23T12:22:40;20.8;45.0
78461;SHT31;67755;51.986;5.696;2023-04-23T12:25:10;20.8;44.4
78461;SHT31;67755;51.986;5.696;2023-04-23T12:27:42;20.8;43.4
78461;SHT31;67755;51.986;5.696;2023-04-23T12:30:14;20.8;44.5
78461;SHT31;67755;51.986;5.696;2023-04-23T12:32:45;20.8;45.0
78461;SHT31;67755;51.986;5.696;2023-04-23T12:35:16;20.8;44.1
78461;SHT31;67755;51.986;5.696;2023-04-23T12:37:46;20.9;43.6
78461;SHT31;67755;51.986;5.696;2023-04-23T12:40:16;20.9;45.0
78461;SHT31;67755;51.986;5.696;2023-04-23T12:42:46;20.9;43.9
78461;SHT31;67755;51.986;5.696;2023-04-23T12:45:15;20.9;44.5
78461;SHT31;67755;51.986;5.696;2023-04-23T12:47:45;20.9;43.9
78461;SHT31;67755;51.986;5.696;2023-04-23T12:50:16;20.9;44.9
78461;SHT31;67755;51.986;5.696;2023-04-23T12:52:46;20.9;45.0
78461;SHT31;67755;51.986;5.696;2023-04-23T12:55:15;20.9;43.6
78461;SHT31;67755;51.986;5.696;2023-04-23T12:57:45;20.9;43.0
78461;SHT31;67755;51.986;5.696;2023-04-23T13:00:15;20.9;43.9
78461;SHT31;67755;51.986;5.696;2023-04-23T13:02:45;20.9;45.5
78461;SHT31;67755;51.986;5.696;2023-04-23T13:05:14;20.9;44.6
78461;SHT31;67755;51.986;5.696;2023-04-23T13:07:44;20.9;45.2
78461;SHT31;67755;51.986;5.696;2023-04-23T13:10:14;20.9;45.9
78461;SHT31;67755;51.986;5.696;2023-04-23T13:12:43;20.9;44.5
78461;SHT31;67755;51.986;5.696;2023-04-23T13:15:13;20.9;44.4
78461;SHT31;67755;51.986;5.696;2023-04-23T13:17:44;20.9;44.2
78461;SHT31;67755;51.986;5.696;2023-04-23T13:20:14;20.9;44.3
78461;SHT31;67755;51.986;5.696;2023-04-23T13:22:43;20.9;44.7
78461;SHT31;67755;51.986;5.696;2023-04-23T13:25:13;21.0;45.9
78461;SHT31;67755;51.986;5.696;2023-04-23T13:27:43;21.0;45.8
78461;SHT31;67755;51.986;5.696;2023-04-23T13:30:13;21.0;43.7
78461;SHT31;67755;51.986;5.696;2023-04-23T13:32:42;21.0;44.6
78461;SHT31;67755;51.986;5.696;2023-04-23T13:35:12;21.0;43.9
78461;SHT31;67755;51.986;5.696;2023-04-23T13:37:43;21.0;42.8
78461;SHT31;67755;51.986;5.696;2023-04-23T13:40:13;21.0;44.3
78461;SHT31;67755;51.986;5.696;2023-04-23T13:42:43;21.0;44.7
78461;SHT31;67755;51.986;5.696;2023-04-23T13:45:14;21.0;43.5
78461;SHT31;67755;51.986;5.696;2023-04-23T13:47:44;21.0;43.6
78461;SHT31;67755;51.986;5.696;2023-04-23T13:50:14;21.0;43.7
78461;SHT31;67755;51.986;5.696;2023-04-23T13:52:43;21.0;44.2
78461;SHT31;67755;51.986;5.696;2023-04-23T13:55:14;21.0;42.9
78461;SHT31;67755;51.986;5.696;2023-04-23T13:57:44;21.0;44.7
78461;SHT31;67755;51.986;5.696;2023-04-23T14:00:14;21.0;43.8
78461;SHT31;67755;51.986;5.696;2023-04-23T14:02:44;21.0;42.3
78461;SHT31;67755;51.986;5.696;2023-04-23T14:05:13;21.0;44.7
78461;SHT31;67755;51.986;5.696;2023-04-23T14:07:43;21.0;43.5
78461;SHT31;67755;51.986;5.696;2023-04-23T14:10:13;20.9;44.0
78461;SHT31;67755;51.986;5.696;2023-04-23T14:12:44;20.9;43.6
78461;SHT31;67755;51.986;5.696;2023-04-23T14:15:14;20.9;43.2
78461;SHT31;67755;51.986;5.696;2023-04-23T14:17:44;20.9;44.8
78461;SHT31;67755;51.986;5.696;2023-04-23T14:20:14;20.9;46.0
78461;SHT31;67755;51.986;5.696;2023-04-23T14:22:50;20.8;47.4
78461;SHT31;67755;51.986;5.696;2023-04-23T14:25:29;20.8;44.6
78461;SHT31;67755;51.986;5.696;2023-04-23T14:30:46;20.8;43.0
78461;SHT31;67755;51.986;5.696;2023-04-23T14:33:18;20.7;44.1
78461;SHT31;67755;51.986;5.696;2023-04-23T14:35:47;20.7;44.5
78461;SHT31;67755;51.986;5.696;2023-04-23T14:38:17;20.7;44.3
78461;SHT31;67755;51.986;5.696;2023-04-23T14:40:49;20.7;44.7
78461;SHT31;67755;51.986;5.696;2023-04-23T14:43:18;20.6;45.2
78461;SHT31;67755;51.986;5.696;2023-04-23T14:45:48;20.6;44.7
78461;SHT31;67755;51.986;5.696;2023-04-23T14:48:18;20.6;44.5
78461;SHT31;67755;51.986;5.696;2023-04-23T14:50:48;20.6;43.6
78461;SHT31;67755;51.986;5.696;2023-04-23T14:53:17;20.5;44.4
78461;SHT31;67755;51.986;5.696;2023-04-23T14:55:48;20.5;46.0
78461;SHT31;67755;51.986;5.696;2023-04-23T14:58:17;20.4;48.6
78461;SHT31;67755;51.986;5.696;2023-04-23T15:00:47;20.4;48.5
78461;SHT31;67755;51.986;5.696;2023-04-23T15:03:17;20.3;50.9
78461;SHT31;67755;51.986;5.696;2023-04-23T15:05:47;20.3;51.4
78461;SHT31;67755;51.986;5.696;2023-04-23T15:08:19;20.2;52.0
78461;SHT31;67755;51.986;5.696;2023-04-23T15:10:48;20.1;51.5
78461;SHT31;67755;51.986;5.696;2023-04-23T15:13:54;20.0;52.1
78461;SHT31;67755;51.986;5.696;2023-04-23T15:16:27;19.8;53.4
78461;SHT31;67755;51.986;5.696;2023-04-23T15:18:59;19.7;53.5
78461;SHT31;67755;51.986;5.696;2023-04-23T15:21:31;19.6;54.6
78461;SHT31;67755;51.986;5.696;2023-04-23T15:24:01;19.5;54.4
78461;SHT31;67755;51.986;5.696;2023-04-23T15:26:31;19.5;54.9
78461;SHT31;67755;51.986;5.696;2023-04-23T15:29:06;19.4;55.5
78461;SHT31;67755;51.986;5.696;2023-04-23T15:31:37;19.3;55.6
78461;SHT31;67755;51.986;5.696;2023-04-23T15:34:07;19.2;55.2
78461;SHT31;67755;51.986;5.696;2023-04-23T15:36:38;19.1;55.8
78461;SHT31;67755;51.986;5.696;2023-04-23T15:39:07;19.1;55.6
78461;SHT31;67755;51.986;5.696;2023-04-23T15:41:37;19.0;55.2
78461;SHT31;67755;51.986;5.696;2023-04-23T15:44:07;18.9;56.2
78461;SHT31;67755;51.986;5.696;2023-04-23T15:46:37;18.8;56.9
78461;SHT31;67755;51.986;5.696;2023-04-23T15:49:07;18.7;56.6
78461;SHT31;67755;51.986;5.696;2023-04-23T15:51:37;18.6;56.7
78461;SHT31;67755;51.986;5.696;2023-04-23T15:54:09;18.6;57.2
78461;SHT31;67755;51.986;5.696;2023-04-23T15:56:39;18.5;57.5
78461;SHT31;67755;51.986;5.696;2023-04-23T15:59:09;18.4;57.0
78461;SHT31;67755;51.986;5.696;2023-04-23T16:01:39;18.4;57.5
78461;SHT31;67755;51.986;5.696;2023-04-23T16:04:08;18.3;57.6
78461;SHT31;67755;51.986;5.696;2023-04-23T16:06:38;18.3;57.4
78461;SHT31;67755;51.986;5.696;2023-04-23T16:09:10;18.2;57.9
78461;SHT31;67755;51.986;5.696;2023-04-23T16:11:40;18.2;58.4
78461;SHT31;67755;51.986;5.696;2023-04-23T16:14:10;18.1;57.9
78461;SHT31;67755;51.986;5.696;2023-04-23T16:16:41;18.1;58.8
78461;SHT31;67755;51.986;5.696;2023-04-23T16:19:11;18.1;58.5
78461;SHT31;67755;51.986;5.696;2023-04-23T16:21:40;18.0;58.3
78461;SHT31;67755;51.986;5.696;2023-04-23T16:24:10;18.0;58.0
78461;SHT31;67755;51.986;5.696;2023-04-23T16:26:41;18.0;58.7